createdAt,value
2023-05-15T00:02:20.052Z,46.33
2023-05-15T00:04:46.636Z,46.79
2023-05-15T00:07:13.161Z,47.22
2023-05-15T00:09:39.554Z,47.20
2023-05-15T00:12:06.318Z,47.27
2023-05-15T00:14:32.717Z,46.96
2023-05-15T00:16:59.246Z,46.91
2023-05-15T00:19:25.616Z,46.77
2023-05-15T00:21:52.253Z,46.93
2023-05-15T00:24:18.643Z,47.13
2023-05-15T00:26:45.289Z,47.07
2023-05-15T00:29:11.737Z,47.08
2023-05-15T00:31:38.307Z,47.11
2023-05-15T00:34:04.920Z,47.49
2023-05-15T00:36:31.708Z,47.28
2023-05-15T00:38:58.487Z,48.05
2023-05-15T00:41:26.864Z,47.95
2023-05-15T00:43:55.476Z,47.98
2023-05-15T00:46:23.005Z,47.76
2023-05-15T00:48:51.193Z,47.34
2023-05-15T00:51:17.847Z,47.83
2023-05-15T00:53:44.677Z,48.15
2023-05-15T00:56:12.550Z,47.92
2023-05-15T00:58:39.201Z,48.51
2023-05-15T01:01:08.229Z,48.48
2023-05-15T01:03:36.009Z,48.81
2023-05-15T01:06:02.722Z,49.05
2023-05-15T01:08:46.969Z,48.39
2023-05-15T01:11:15.142Z,48.53
2023-05-15T01:13:41.848Z,49.17
2023-05-15T01:16:09.603Z,49.23
2023-05-15T01:18:37.017Z,49.05
2023-05-15T01:21:06.296Z,49.12
2023-05-15T01:24:10.731Z,49.15
2023-05-15T01:26:46.051Z,49.18
2023-05-15T01:29:27.345Z,49.15
2023-05-15T01:32:06.694Z,49.48
2023-05-15T01:34:48.404Z,49.46
2023-05-15T01:37:21.013Z,49.40
2023-05-15T01:39:53.197Z,49.55
2023-05-15T01:42:20.479Z,50.04
2023-05-15T01:44:54.719Z,49.63
2023-05-15T01:47:27.688Z,49.88
2023-05-15T01:49:56.031Z,50.11
2023-05-15T01:52:38.613Z,49.87
2023-05-15T01:55:07.548Z,50.06
2023-05-15T01:57:35.798Z,50.35
2023-05-15T02:00:03.711Z,50.31
2023-05-15T02:02:30.997Z,50.68
2023-05-15T02:04:58.670Z,50.44
2023-05-15T02:07:26.362Z,50.36
2023-05-15T02:09:54.121Z,50.13
2023-05-15T02:12:21.401Z,50.43
2023-05-15T02:14:50.146Z,50.62
2023-05-15T02:17:16.764Z,51.09
2023-05-15T02:19:43.796Z,50.92
2023-05-15T02:22:10.671Z,50.96
2023-05-15T02:24:37.126Z,51.02
2023-05-15T02:27:15.893Z,50.74
2023-05-15T02:29:46.058Z,50.91
2023-05-15T02:32:12.549Z,51.72
2023-05-15T02:35:01.152Z,51.16
2023-05-15T02:37:31.067Z,51.47
2023-05-15T02:39:59.663Z,51.91
2023-05-15T02:42:28.082Z,51.54
2023-05-15T02:44:55.690Z,51.65
2023-05-15T02:47:23.618Z,51.90
2023-05-15T02:49:50.486Z,52.05
2023-05-15T02:52:17.791Z,51.87
2023-05-15T02:54:44.288Z,52.14
2023-05-15T02:57:10.651Z,52.07
2023-05-15T02:59:37.323Z,52.19
2023-05-15T03:02:03.760Z,52.25
2023-05-15T03:04:30.314Z,52.32
2023-05-15T03:06:56.807Z,52.46
2023-05-15T03:09:23.279Z,52.53
2023-05-15T03:11:49.773Z,52.81
2023-05-15T03:14:16.189Z,52.77
2023-05-15T03:16:42.575Z,53.08
2023-05-15T03:19:12.622Z,53.01
2023-05-15T03:21:39.134Z,53.32
2023-05-15T03:24:05.789Z,53.41
2023-05-15T03:26:32.273Z,53.18
2023-05-15T03:28:58.721Z,53.59
2023-05-15T03:31:25.148Z,53.56
2023-05-15T03:33:51.643Z,53.38
2023-05-15T03:36:18.047Z,53.42
2023-05-15T03:38:44.468Z,53.87
2023-05-15T03:41:10.993Z,53.95
2023-05-15T03:43:38.659Z,53.81
2023-05-15T03:46:05.662Z,54.04
2023-05-15T03:48:32.128Z,54.27
2023-05-15T03:50:58.827Z,54.62
2023-05-15T03:53:25.441Z,54.50
2023-05-15T03:55:51.929Z,54.78
2023-05-15T03:58:18.327Z,54.91
2023-05-15T04:00:44.650Z,55.23
2023-05-15T04:03:11.252Z,54.87
2023-05-15T04:05:38.944Z,54.77
2023-05-15T04:08:06.033Z,54.65
2023-05-15T04:10:33.621Z,54.91
2023-05-15T04:13:00.000Z,54.92
2023-05-15T04:15:29.270Z,54.83
2023-05-15T04:17:55.821Z,55.18
2023-05-15T04:20:24.533Z,55.22
2023-05-15T04:22:52.042Z,55.06
2023-05-15T04:25:20.144Z,55.16
2023-05-15T04:27:46.625Z,55.30
2023-05-15T04:30:13.509Z,55.74
2023-05-15T04:32:40.625Z,55.97
2023-05-15T04:35:17.089Z,55.95
2023-05-15T04:37:45.682Z,56.02
2023-05-15T04:40:14.826Z,56.03
2023-05-15T04:42:41.565Z,56.30
2023-05-15T04:45:09.176Z,56.17
2023-05-15T04:47:36.209Z,56.13
2023-05-15T04:50:03.146Z,56.22
2023-05-15T04:52:29.841Z,56.54
2023-05-15T04:54:56.291Z,56.08
2023-05-15T04:57:23.025Z,56.48
2023-05-15T04:59:49.560Z,56.58
2023-05-15T05:02:16.218Z,56.51
2023-05-15T05:04:43.029Z,56.42
2023-05-15T05:07:09.477Z,56.68
2023-05-15T05:09:35.891Z,57.29
2023-05-15T05:12:02.341Z,57.24
2023-05-15T05:14:28.846Z,57.54
2023-05-15T05:16:55.360Z,57.77
2023-05-15T05:19:21.800Z,58.04
2023-05-15T05:21:48.270Z,58.33
2023-05-15T05:24:14.703Z,58.51
2023-05-15T05:26:44.718Z,58.15
2023-05-15T05:29:11.361Z,59.08
2023-05-15T05:31:37.959Z,59.12
2023-05-15T05:34:04.592Z,59.54
2023-05-15T05:36:30.992Z,59.40
2023-05-15T05:38:57.430Z,59.60
2023-05-15T05:41:23.929Z,59.77
2023-05-15T05:43:50.385Z,59.82
2023-05-15T05:46:16.816Z,59.77
2023-05-15T05:48:43.231Z,59.95
2023-05-15T05:51:09.695Z,59.51
2023-05-15T05:53:37.606Z,59.70
2023-05-15T05:56:05.762Z,59.99
2023-05-15T05:58:32.304Z,59.50
2023-05-15T06:00:58.959Z,59.26
2023-05-15T06:03:25.963Z,58.97
2023-05-15T06:05:53.629Z,58.27
2023-05-15T06:08:20.864Z,57.44
2023-05-15T06:10:47.238Z,57.15
2023-05-15T06:13:15.176Z,57.10
2023-05-15T06:15:42.149Z,56.87
2023-05-15T06:18:08.728Z,57.03
2023-05-15T06:20:35.320Z,56.96
2023-05-15T06:23:01.857Z,56.60
2023-05-15T06:25:28.251Z,56.40
2023-05-15T06:27:55.708Z,56.40
2023-05-15T06:30:22.434Z,56.22
2023-05-15T06:32:49.034Z,56.25
2023-05-15T06:35:15.641Z,55.87
2023-05-15T06:37:42.073Z,56.23
2023-05-15T06:40:09.108Z,56.08
2023-05-15T06:42:35.619Z,56.22
2023-05-15T06:45:20.804Z,56.13
2023-05-15T06:47:47.232Z,55.63
2023-05-15T06:50:13.661Z,55.74
2023-05-15T06:52:40.822Z,55.48
2023-05-15T06:55:07.926Z,54.83
2023-05-15T06:57:34.839Z,55.11
2023-05-15T07:00:01.366Z,54.86
2023-05-15T07:02:27.843Z,54.37
2023-05-15T07:04:54.372Z,54.72
2023-05-15T07:07:20.811Z,54.52
2023-05-15T07:09:48.478Z,54.82
2023-05-15T07:12:15.530Z,54.27
2023-05-15T07:14:42.061Z,54.05
2023-05-15T07:17:08.723Z,53.78
2023-05-15T07:19:35.266Z,53.81
2023-05-15T07:22:03.301Z,53.53
2023-05-15T07:24:30.126Z,53.34
2023-05-15T07:26:58.692Z,52.98
2023-05-15T07:29:25.778Z,53.26
2023-05-15T07:31:52.311Z,53.26
2023-05-15T07:34:18.790Z,53.41
2023-05-15T07:36:45.371Z,53.21
2023-05-15T07:39:11.872Z,53.09
2023-05-15T07:41:38.382Z,53.19
2023-05-15T07:44:04.790Z,53.15
2023-05-15T07:46:31.440Z,53.67
2023-05-15T07:48:57.954Z,54.14
2023-05-15T07:51:24.398Z,54.45
2023-05-15T07:53:50.896Z,53.99
2023-05-15T07:56:17.329Z,53.79
2023-05-15T07:58:43.670Z,52.96
2023-05-15T08:01:10.312Z,51.93
2023-05-15T08:03:36.778Z,51.68
2023-05-15T08:06:03.448Z,51.21
2023-05-15T08:08:29.924Z,51.34
2023-05-15T08:10:56.365Z,51.29
2023-05-15T08:13:22.800Z,51.61
2023-05-15T08:15:49.206Z,51.70
2023-05-15T08:18:15.827Z,51.48
2023-05-15T08:20:42.225Z,51.64
2023-05-15T08:23:13.691Z,52.00
2023-05-15T08:25:40.114Z,51.76
2023-05-15T08:28:06.502Z,51.36
2023-05-15T08:30:32.983Z,51.32
2023-05-15T08:32:59.396Z,51.54
2023-05-15T08:35:26.047Z,51.14
2023-05-15T08:37:54.040Z,51.44
2023-05-15T08:40:25.641Z,51.37
2023-05-15T08:43:06.175Z,51.35
2023-05-15T08:45:33.393Z,50.94
2023-05-15T08:48:00.751Z,51.03
2023-05-15T08:50:29.148Z,50.99
2023-05-15T08:52:59.590Z,50.99
2023-05-15T08:55:26.372Z,50.68
2023-05-15T08:57:54.453Z,50.56
2023-05-15T09:00:32.004Z,50.91
2023-05-15T09:03:01.822Z,51.14
2023-05-15T09:05:34.430Z,51.09
2023-05-15T09:08:05.528Z,51.11
2023-05-15T09:10:36.650Z,50.72
2023-05-15T09:13:03.776Z,50.23
2023-05-15T09:15:37.403Z,50.44
2023-05-15T09:18:06.529Z,50.28
2023-05-15T09:20:37.535Z,50.01
2023-05-15T09:23:24.689Z,50.06
2023-05-15T09:25:57.319Z,49.76
2023-05-15T09:28:38.602Z,49.82
2023-05-15T09:31:10.792Z,49.34
2023-05-15T09:33:39.122Z,49.31
2023-05-15T09:36:10.926Z,49.24
2023-05-15T09:38:52.626Z,49.24
2023-05-15T09:41:27.362Z,48.99
2023-05-15T09:43:59.459Z,49.02
2023-05-15T09:46:31.792Z,48.64
2023-05-15T09:49:01.431Z,48.33
2023-05-15T09:51:30.187Z,47.98
2023-05-15T09:54:18.843Z,47.56
2023-05-15T09:56:58.627Z,47.61
2023-05-15T09:59:45.461Z,47.50
2023-05-15T10:02:35.332Z,47.32
2023-05-15T10:05:35.315Z,46.36
2023-05-15T10:08:08.515Z,46.63
2023-05-15T10:10:36.600Z,46.70
2023-05-15T10:13:05.784Z,46.76
2023-05-15T10:15:45.046Z,46.80
2023-05-15T10:18:23.184Z,46.45
2023-05-15T10:20:50.080Z,45.93
2023-05-15T10:23:23.841Z,46.46
2023-05-15T10:26:01.965Z,46.07
2023-05-15T10:28:28.884Z,46.37
2023-05-15T10:30:59.806Z,46.07
2023-05-15T10:33:27.071Z,45.91
2023-05-15T10:35:54.354Z,45.96
2023-05-15T10:38:21.395Z,46.35
2023-05-15T10:40:48.600Z,46.45
2023-05-15T10:43:15.595Z,46.49
2023-05-15T10:45:42.670Z,46.29
2023-05-15T10:48:12.202Z,46.33
2023-05-15T10:50:38.848Z,46.06
2023-05-15T10:53:05.891Z,45.73
2023-05-15T10:55:32.478Z,45.73
2023-05-15T10:57:58.897Z,46.09
2023-05-15T11:00:27.782Z,46.46
2023-05-15T11:02:57.003Z,46.25
2023-05-15T11:05:24.237Z,46.74
2023-05-15T11:08:26.184Z,46.88
2023-05-15T11:10:53.678Z,46.69
2023-05-15T11:13:20.297Z,47.29
2023-05-15T11:15:47.918Z,47.35
2023-05-15T11:18:15.347Z,47.19
2023-05-15T11:20:55.066Z,46.65
2023-05-15T11:23:22.738Z,46.25
2023-05-15T11:25:58.170Z,47.17
2023-05-15T11:28:25.829Z,46.52
2023-05-15T11:30:53.511Z,46.37
2023-05-15T11:33:20.805Z,46.33
2023-05-15T11:35:48.544Z,46.08
2023-05-15T11:38:16.241Z,46.61
2023-05-15T11:41:02.783Z,46.48
2023-05-15T11:43:32.731Z,46.00
2023-05-15T11:46:08.322Z,46.01
2023-05-15T11:48:47.615Z,45.77
2023-05-15T11:51:24.992Z,45.60
2023-05-15T11:53:53.702Z,45.15
2023-05-15T11:56:22.699Z,44.88
2023-05-15T11:58:50.734Z,44.96
2023-05-15T12:01:17.331Z,45.17
2023-05-15T12:03:47.407Z,44.78
2023-05-15T12:06:14.202Z,44.46
2023-05-15T12:08:42.092Z,44.33
2023-05-15T12:11:08.792Z,44.30
2023-05-15T12:13:35.514Z,44.45
2023-05-15T12:16:05.414Z,44.21
2023-05-15T12:18:32.609Z,44.00
2023-05-15T12:20:59.716Z,44.06
2023-05-15T12:23:28.313Z,43.23
2023-05-15T12:26:00.886Z,43.55
2023-05-15T12:28:28.810Z,43.47
2023-05-15T12:30:55.821Z,42.76
2023-05-15T12:33:23.450Z,42.25
2023-05-15T12:35:53.943Z,42.06
2023-05-15T12:38:22.259Z,41.52
2023-05-15T12:40:53.342Z,41.61
2023-05-15T12:43:20.060Z,41.62
2023-05-15T12:45:46.596Z,41.50
2023-05-15T12:48:15.852Z,41.78
2023-05-15T12:50:45.275Z,41.20
2023-05-15T12:53:14.615Z,41.56
2023-05-15T12:55:41.224Z,41.80
2023-05-15T12:58:10.594Z,41.09
2023-05-15T13:00:39.058Z,40.73
2023-05-15T13:03:08.527Z,40.73
2023-05-15T13:05:36.784Z,40.09
2023-05-15T13:08:05.119Z,39.05
2023-05-15T13:10:33.522Z,39.36
2023-05-15T13:13:00.068Z,38.98
2023-05-15T13:15:36.798Z,39.30
2023-05-15T13:18:14.304Z,39.33
2023-05-15T13:20:42.292Z,39.17
2023-05-15T13:23:12.109Z,38.93
2023-05-15T13:25:38.682Z,38.89
2023-05-15T13:28:06.478Z,39.04
2023-05-15T13:30:34.453Z,36.78
2023-05-15T13:33:01.295Z,37.29
2023-05-15T13:35:28.431Z,37.45
2023-05-15T13:37:54.884Z,36.83
2023-05-15T13:40:21.449Z,36.14
2023-05-15T13:42:47.861Z,35.62
2023-05-15T13:45:16.232Z,35.83
2023-05-15T13:47:43.835Z,35.77
2023-05-15T13:50:14.840Z,35.04
2023-05-15T13:52:42.948Z,36.21
2023-05-15T13:55:10.044Z,35.75
2023-05-15T13:57:37.995Z,35.75
2023-05-15T14:00:10.580Z,35.33
2023-05-15T14:02:36.960Z,34.45
2023-05-15T14:05:04.674Z,32.73
2023-05-15T14:07:31.784Z,32.17
2023-05-15T14:09:58.202Z,31.71
2023-05-15T14:12:24.783Z,32.03
2023-05-15T14:14:51.379Z,32.19
2023-05-15T14:17:18.378Z,31.76
2023-05-15T14:19:44.961Z,32.21
2023-05-15T14:22:11.337Z,32.09
2023-05-15T14:24:37.695Z,31.93
2023-05-15T14:27:04.267Z,32.24
2023-05-15T14:29:30.584Z,31.90
2023-05-15T14:31:57.071Z,32.35
2023-05-15T14:34:23.535Z,32.52
2023-05-15T14:36:50.720Z,32.60
2023-05-15T14:39:17.900Z,32.56
2023-05-15T14:41:45.145Z,31.99
2023-05-15T14:44:11.474Z,32.34
2023-05-15T14:46:38.230Z,31.56
2023-05-15T14:49:04.963Z,31.75
2023-05-15T14:51:31.808Z,30.95
2023-05-15T14:53:58.363Z,30.52
2023-05-15T14:56:25.824Z,31.35
2023-05-15T14:58:53.586Z,30.65
2023-05-15T15:01:20.633Z,29.92
2023-05-15T15:03:47.195Z,30.46
2023-05-15T15:06:13.625Z,30.80
2023-05-15T15:08:39.945Z,31.03
2023-05-15T15:11:07.178Z,31.10
2023-05-15T15:13:33.549Z,30.97
2023-05-15T15:16:00.029Z,31.31
2023-05-15T15:18:26.474Z,32.04
2023-05-15T15:20:52.949Z,31.91
2023-05-15T15:23:19.341Z,31.58
2023-05-15T15:25:45.686Z,31.72
2023-05-15T15:28:12.850Z,31.77
2023-05-15T15:30:39.232Z,31.35
2023-05-15T15:33:05.752Z,31.51
2023-05-15T15:35:32.161Z,31.81
2023-05-15T15:37:58.796Z,31.72
2023-05-15T15:40:25.618Z,31.90
2023-05-15T15:42:52.219Z,32.36
2023-05-15T15:45:18.568Z,32.73
2023-05-15T15:47:44.987Z,33.27
2023-05-15T15:50:11.342Z,33.51
2023-05-15T15:52:37.780Z,33.68
2023-05-15T15:55:04.516Z,33.91
2023-05-15T15:57:32.762Z,33.36
2023-05-15T15:59:59.097Z,33.70
2023-05-15T16:02:25.955Z,33.21
2023-05-15T16:04:52.294Z,33.74
2023-05-15T16:07:18.643Z,33.24
2023-05-15T16:09:45.719Z,33.26
2023-05-15T16:12:14.138Z,33.25
2023-05-15T16:14:40.624Z,33.13
2023-05-15T16:17:07.101Z,32.93
2023-05-15T16:19:34.777Z,33.19
2023-05-15T16:22:01.217Z,33.35
2023-05-15T16:24:27.632Z,33.33
2023-05-15T16:26:55.102Z,33.10
2023-05-15T16:29:21.496Z,32.96
2023-05-15T16:31:47.908Z,32.40
2023-05-15T16:34:14.637Z,32.10
2023-05-15T16:36:40.969Z,32.11
2023-05-15T16:39:08.377Z,32.38
2023-05-15T16:41:34.724Z,32.84
2023-05-15T16:44:01.058Z,32.94
2023-05-15T16:46:27.447Z,33.48
2023-05-15T16:48:54.004Z,33.81
2023-05-15T16:51:21.359Z,33.88
2023-05-15T16:53:47.786Z,34.35
2023-05-15T16:56:14.250Z,34.38
2023-05-15T16:58:42.262Z,35.17
2023-05-15T17:01:08.624Z,35.20
2023-05-15T17:03:35.109Z,35.92
2023-05-15T17:06:01.570Z,36.35
2023-05-15T17:08:27.906Z,36.76
2023-05-15T17:10:54.228Z,38.65
2023-05-15T17:13:20.593Z,44.68
2023-05-15T17:15:49.549Z,47.20
2023-05-15T17:18:16.506Z,48.06
2023-05-15T17:20:42.965Z,48.00
2023-05-15T17:23:09.297Z,48.69
2023-05-15T17:25:35.696Z,49.85
2023-05-15T17:28:02.015Z,50.01
2023-05-15T17:30:28.347Z,50.92
2023-05-15T17:32:54.861Z,52.30
2023-05-15T17:35:22.696Z,53.41
2023-05-15T17:37:49.055Z,53.77
2023-05-15T17:40:15.459Z,54.31
2023-05-15T17:42:41.760Z,54.36
2023-05-15T17:45:08.656Z,54.79
2023-05-15T17:47:35.047Z,54.52
2023-05-15T17:50:01.413Z,54.22
2023-05-15T17:52:27.850Z,54.94
2023-05-15T17:54:54.197Z,55.19
2023-05-15T17:57:20.526Z,54.79
2023-05-15T17:59:46.877Z,54.96
2023-05-15T18:02:13.276Z,54.53
2023-05-15T18:04:39.768Z,54.68
2023-05-15T18:07:06.200Z,54.35
2023-05-15T18:09:32.592Z,54.47
2023-05-15T18:11:58.917Z,54.64
2023-05-15T18:14:25.348Z,53.91
2023-05-15T18:16:51.860Z,54.23
2023-05-15T18:19:18.407Z,54.56
2023-05-15T18:21:44.808Z,53.67
2023-05-15T18:24:11.327Z,53.66
2023-05-15T18:26:37.694Z,53.53
2023-05-15T18:29:04.090Z,53.43
2023-05-15T18:31:30.475Z,52.63
2023-05-15T18:33:56.899Z,52.44
2023-05-15T18:36:23.363Z,52.12
2023-05-15T18:38:49.750Z,51.89
2023-05-15T18:41:16.175Z,51.36
2023-05-15T18:43:42.533Z,51.42
2023-05-15T18:46:08.886Z,51.99
2023-05-15T18:48:35.315Z,51.39
2023-05-15T18:51:01.741Z,51.87
2023-05-15T18:53:28.165Z,51.92
2023-05-15T18:55:55.953Z,51.92
2023-05-15T18:58:22.465Z,51.61
2023-05-15T19:00:49.055Z,52.37
2023-05-15T19:03:15.844Z,52.53
2023-05-15T19:05:42.686Z,52.58
2023-05-15T19:08:09.055Z,53.00
2023-05-15T19:10:35.475Z,53.26
2023-05-15T19:13:01.857Z,52.79
2023-05-15T19:15:28.334Z,53.15
2023-05-15T19:17:54.695Z,53.29
2023-05-15T19:20:21.194Z,52.83
2023-05-15T19:22:47.628Z,52.79
2023-05-15T19:25:14.272Z,53.03
2023-05-15T19:27:41.161Z,52.96
2023-05-15T19:30:09.317Z,52.79
2023-05-15T19:32:36.602Z,52.75
2023-05-15T19:35:03.120Z,52.67
2023-05-15T19:37:29.616Z,53.06
2023-05-15T19:39:56.613Z,53.17
2023-05-15T19:42:23.000Z,53.38
2023-05-15T19:44:49.404Z,53.58
2023-05-15T19:47:15.817Z,53.78
2023-05-15T19:49:42.147Z,53.76
2023-05-15T19:52:08.620Z,53.66
2023-05-15T19:54:35.061Z,53.54
2023-05-15T19:57:02.809Z,53.24
2023-05-15T19:59:29.655Z,53.34
2023-05-15T20:01:56.261Z,53.43
2023-05-15T20:04:22.850Z,53.53
2023-05-15T20:06:49.322Z,53.63
2023-05-15T20:09:15.729Z,53.96
2023-05-15T20:11:42.135Z,53.93
2023-05-15T20:14:08.459Z,54.48
2023-05-15T20:16:34.925Z,54.00
2023-05-15T20:19:01.360Z,54.08
2023-05-15T20:21:27.781Z,54.33
2023-05-15T20:23:54.169Z,54.61
2023-05-15T20:26:22.147Z,54.47
2023-05-15T20:28:48.557Z,54.27
2023-05-15T20:31:15.130Z,54.49
2023-05-15T20:33:41.732Z,54.87
2023-05-15T20:36:08.220Z,55.05
2023-05-15T20:38:35.479Z,54.93
2023-05-15T20:41:01.823Z,55.29
2023-05-15T20:43:28.249Z,55.12
2023-05-15T20:45:55.304Z,55.10
2023-05-15T20:48:21.669Z,54.97
2023-05-15T20:50:48.006Z,55.04
2023-05-15T20:53:14.355Z,55.10
2023-05-15T20:55:40.802Z,55.22
2023-05-15T20:58:07.632Z,55.32
2023-05-15T21:00:34.218Z,55.39
2023-05-15T21:03:00.739Z,55.44
2023-05-15T21:05:27.220Z,55.45
2023-05-15T21:07:53.530Z,55.59
2023-05-15T21:10:20.254Z,55.50
2023-05-15T21:12:46.587Z,56.09
2023-05-15T21:15:13.064Z,56.11
2023-05-15T21:17:39.889Z,56.15
2023-05-15T21:20:07.087Z,56.36
2023-05-15T21:22:34.369Z,56.52
2023-05-15T21:25:00.885Z,56.45
2023-05-15T21:27:27.264Z,56.80
2023-05-15T21:29:53.632Z,56.90
2023-05-15T21:32:20.010Z,56.93
2023-05-15T21:34:46.732Z,56.86
2023-05-15T21:37:13.164Z,56.70
2023-05-15T21:39:39.489Z,56.83
2023-05-15T21:42:05.834Z,56.51
2023-05-15T21:44:32.260Z,56.46
2023-05-15T21:46:58.593Z,56.53
2023-05-15T21:49:24.927Z,56.50
2023-05-15T21:51:51.267Z,56.25
2023-05-15T21:54:17.611Z,56.42
2023-05-15T21:56:43.999Z,56.34
2023-05-15T21:59:11.279Z,56.45
2023-05-15T22:01:37.743Z,56.83
2023-05-15T22:04:04.262Z,56.82
2023-05-15T22:06:31.629Z,57.04
2023-05-15T22:08:57.958Z,57.28
2023-05-15T22:11:25.281Z,57.16
2023-05-15T22:13:51.664Z,56.94
2023-05-15T22:16:19.238Z,57.39
2023-05-15T22:18:47.538Z,57.28
2023-05-15T22:21:14.759Z,57.36
2023-05-15T22:23:41.176Z,57.32
2023-05-15T22:26:07.516Z,57.23
2023-05-15T22:28:33.856Z,57.43
2023-05-15T22:31:00.801Z,57.26
2023-05-15T22:33:27.473Z,57.48
2023-05-15T22:35:53.961Z,57.63
2023-05-15T22:38:20.918Z,57.64
2023-05-15T22:40:51.618Z,57.42
2023-05-15T22:43:18.476Z,57.64
2023-05-15T22:45:44.918Z,57.91
2023-05-15T22:48:11.431Z,58.21
2023-05-15T22:50:37.774Z,58.04
2023-05-15T22:53:04.082Z,57.83
2023-05-15T22:55:30.560Z,57.85
2023-05-15T22:57:56.919Z,57.72
2023-05-15T23:00:23.406Z,57.59
2023-05-15T23:02:50.034Z,57.89
2023-05-15T23:05:16.411Z,57.69
2023-05-15T23:07:42.747Z,57.69
2023-05-15T23:10:09.550Z,57.88
2023-05-15T23:12:35.909Z,57.73
2023-05-15T23:15:02.313Z,57.78
2023-05-15T23:17:28.648Z,57.85
2023-05-15T23:19:55.020Z,57.56
2023-05-15T23:22:21.401Z,58.03
2023-05-15T23:24:47.767Z,57.99
2023-05-15T23:27:14.165Z,58.02
2023-05-15T23:29:40.665Z,58.25
2023-05-15T23:32:07.283Z,58.28
2023-05-15T23:34:33.845Z,58.31
2023-05-15T23:37:00.262Z,58.52
2023-05-15T23:39:26.703Z,58.21
2023-05-15T23:41:53.044Z,58.12
2023-05-15T23:44:19.453Z,58.29
2023-05-15T23:46:45.914Z,58.58
2023-05-15T23:49:12.344Z,58.46
2023-05-15T23:51:39.046Z,58.69
2023-05-15T23:54:05.489Z,58.38
2023-05-15T23:56:31.869Z,58.30
2023-05-15T23:58:58.194Z,58.58
